Time;durP1;ratioP1;P1;durP2;ratioP2;P2;SDS_P1;SDS_P2;PMS_P1;PMS_P2;Temp;Humidity;BMP_temperature;BMP_pressure;BME280_temperature;BME280_humidity;BME280_pressure;Samples;Min_cycle;Max_cycle;Signal;HPM_P1;HPM_P2
2023/02/07 00:01:57;;;;;;;7.90;2.28;;;;;;;;;;5096363;28;20038;-57
2023/02/07 00:04:23;;;;;;;8.07;3.03;;;;;;;;;;5095990;28;20415;-58
2023/02/07 00:06:48;;;;;;;7.22;2.50;;;;;;;;;;5096399;28;20388;-59
2023/02/07 00:09:14;;;;;;;5.68;2.80;;;;;;;;;;5097882;28;20396;-58
2023/02/07 00:11:40;;;;;;;9.75;2.67;;;;;;;;;;5097519;28;20048;-58
2023/02/07 00:14:07;;;;;;;7.55;3.40;;;;;;;;;;5099205;28;20377;-64
2023/02/07 00:16:32;;;;;;;6.88;2.45;;;;;;;;;;5097580;28;20016;-59
2023/02/07 00:18:59;;;;;;;5.50;2.97;;;;;;;;;;5098044;28;20020;-59
2023/02/07 00:21:25;;;;;;;8.32;3.50;;;;;;;;;;5096195;28;20012;-59
2023/02/07 00:23:51;;;;;;;11.50;3.80;;;;;;;;;;5096705;28;20154;-57
2023/02/07 00:26:17;;;;;;;6.65;3.30;;;;;;;;;;5095737;28;20085;-58
2023/02/07 00:28:43;;;;;;;8.50;3.28;;;;;;;;;;5095747;28;20016;-58
2023/02/07 00:31:19;;;;;;;10.40;4.18;;;;;;;;;;5094860;28;20020;-64
2023/02/07 00:33:46;;;;;;;7.50;3.40;;;;;;;;;;5095162;28;20024;-57
2023/02/07 00:36:14;;;;;;;8.05;4.15;;;;;;;;;;5094562;28;20031;-61
2023/02/07 00:38:39;;;;;;;8.93;4.53;;;;;;;;;;5097338;28;20027;-60
2023/02/07 00:41:05;;;;;;;9.55;4.13;;;;;;;;;;5098260;28;20019;-62
2023/02/07 00:43:31;;;;;;;8.43;4.35;;;;;;;;;;5095850;28;20410;-57
2023/02/07 00:45:58;;;;;;;9.02;4.47;;;;;;;;;;5094982;28;20028;-66
2023/02/07 00:48:24;;;;;;;16.90;5.65;;;;;;;;;;5095760;28;20039;-58
2023/02/07 00:50:49;;;;;;;12.38;4.32;;;;;;;;;;5095475;28;20019;-60
2023/02/07 00:53:14;;;;;;;12.65;6.05;;;;;;;;;;5092671;28;20020;-58
2023/02/07 00:55:40;;;;;;;17.00;6.93;;;;;;;;;;5095402;28;20031;-57
2023/02/07 00:58:05;;;;;;;13.90;7.15;;;;;;;;;;5094983;28;20012;-57
2023/02/07 01:00:31;;;;;;;15.23;6.57;;;;;;;;;;5095989;28;20461;-58
2023/02/07 01:02:56;;;;;;;21.48;7.20;;;;;;;;;;5095759;28;20077;-57
2023/02/07 01:05:23;;;;;;;14.77;6.13;;;;;;;;;;5093432;28;20059;-56
2023/02/07 01:07:48;;;;;;;22.42;7.78;;;;;;;;;;5093138;28;20051;-60
2023/02/07 01:10:14;;;;;;;16.67;6.50;;;;;;;;;;5093801;28;20403;-60
2023/02/07 01:12:39;;;;;;;11.85;5.60;;;;;;;;;;5094438;28;20016;-62
2023/02/07 01:15:06;;;;;;;15.57;7.07;;;;;;;;;;5093732;28;20484;-59
2023/02/07 01:17:31;;;;;;;16.35;6.95;;;;;;;;;;5094834;28;20077;-59
2023/02/07 01:19:57;;;;;;;23.17;7.95;;;;;;;;;;5094591;28;20024;-57
2023/02/07 01:22:23;;;;;;;19.67;7.13;;;;;;;;;;5096139;28;20016;-57
2023/02/07 01:24:48;;;;;;;22.45;8.18;;;;;;;;;;5094667;28;20418;-59
2023/02/07 01:27:14;;;;;;;23.17;8.55;;;;;;;;;;5094811;28;20012;-59
2023/02/07 01:29:39;;;;;;;20.80;7.82;;;;;;;;;;5092830;28;20047;-59
2023/02/07 01:32:05;;;;;;;17.65;6.20;;;;;;;;;;5092725;28;20077;-57
2023/02/07 01:34:30;;;;;;;23.58;7.25;;;;;;;;;;5092921;28;20020;-61
2023/02/07 01:36:56;;;;;;;34.60;8.07;;;;;;;;;;5094892;28;20027;-57
2023/02/07 01:39:21;;;;;;;22.35;7.68;;;;;;;;;;5094388;28;20030;-62
2023/02/07 01:41:46;;;;;;;22.67;9.32;;;;;;;;;;5095835;28;20028;-57
2023/02/07 01:44:21;;;;;;;21.65;8.45;;;;;;;;;;5095795;28;20464;-59
2023/02/07 01:46:47;;;;;;;17.98;6.47;;;;;;;;;;5094422;28;20051;-67
2023/02/07 01:49:16;;;;;;;22.42;8.02;;;;;;;;;;5094680;28;20024;-58
2023/02/07 01:51:50;;;;;;;16.48;7.38;;;;;;;;;;5095611;28;20020;-62
2023/02/07 01:54:17;;;;;;;22.73;6.60;;;;;;;;;;5093921;28;20020;-59
2023/02/07 01:56:45;;;;;;;14.35;5.63;;;;;;;;;;5093298;28;20021;-59
2023/02/07 01:59:11;;;;;;;16.70;6.63;;;;;;;;;;5092361;28;20024;-59
2023/02/07 02:01:37;;;;;;;22.40;7.75;;;;;;;;;;5092229;28;20024;-57
2023/02/07 02:04:02;;;;;;;14.98;6.47;;;;;;;;;;5093798;28;20024;-58
2023/02/07 02:06:29;;;;;;;17.83;7.18;;;;;;;;;;5092465;28;20036;-59
2023/02/07 02:08:56;;;;;;;19.45;6.65;;;;;;;;;;5093878;28;20040;-59
2023/02/07 02:11:24;;;;;;;18.17;5.97;;;;;;;;;;5092707;28;20024;-69
2023/02/07 02:13:56;;;;;;;18.80;4.72;;;;;;;;;;5095558;28;20110;-65
2023/02/07 02:16:30;;;;;;;13.45;5.50;;;;;;;;;;5096893;28;20148;-58
2023/02/07 02:19:07;;;;;;;17.35;7.18;;;;;;;;;;5094809;28;20028;-58
2023/02/07 02:21:43;;;;;;;16.90;4.28;;;;;;;;;;5094344;28;20117;-59
2023/02/07 02:24:29;;;;;;;15.75;5.40;;;;;;;;;;5092235;28;20019;-58
2023/02/07 02:26:57;;;;;;;17.02;6.55;;;;;;;;;;5091178;28;20094;-59
2023/02/07 02:29:58;;;;;;;15.30;6.22;;;;;;;;;;5093632;28;20024;-58
2023/02/07 02:32:32;;;;;;;12.75;5.13;;;;;;;;;;5014414;28;20025;-60
2023/02/07 02:35:03;;;;;;;14.73;5.30;;;;;;;;;;5079006;28;20499;-58
2023/02/07 02:37:36;;;;;;;14.25;5.38;;;;;;;;;;5093119;28;20020;-59
2023/02/07 02:40:07;;;;;;;14.98;4.50;;;;;;;;;;5093353;28;20346;-57
2023/02/07 02:42:48;;;;;;;12.57;5.80;;;;;;;;;;5091736;28;20020;-60
2023/02/07 02:45:19;;;;;;;12.68;4.90;;;;;;;;;;5092651;28;20024;-57
2023/02/07 02:47:46;;;;;;;18.75;5.70;;;;;;;;;;5092950;28;20016;-57
2023/02/07 02:50:13;;;;;;;16.00;3.72;;;;;;;;;;5093069;28;20484;-59
2023/02/07 02:52:39;;;;;;;19.45;5.63;;;;;;;;;;5093218;28;20040;-59
2023/02/07 02:55:04;;;;;;;19.85;6.28;;;;;;;;;;5091601;28;20059;-59
2023/02/07 02:57:37;;;;;;;23.33;6.43;;;;;;;;;;5091499;28;20028;-58
2023/02/07 03:00:15;;;;;;;13.80;5.20;;;;;;;;;;5091455;28;20020;-58
2023/02/07 03:02:59;;;;;;;17.35;5.88;;;;;;;;;;5091695;28;20047;-61
2023/02/07 03:05:25;;;;;;;11.13;3.65;;;;;;;;;;5092313;28;20028;-58
2023/02/07 03:07:53;;;;;;;17.67;4.00;;;;;;;;;;5094821;28;20090;-65
2023/02/07 03:10:45;;;;;;;12.05;3.75;;;;;;;;;;5094349;28;20477;-59
2023/02/07 03:13:20;;;;;;;17.35;6.53;;;;;;;;;;5062057;28;20036;-58
2023/02/07 03:15:45;;;;;;;17.95;6.28;;;;;;;;;;5095500;28;20024;-58
2023/02/07 03:18:10;;;;;;;16.50;5.45;;;;;;;;;;5095508;28;20369;-58
2023/02/07 03:20:37;;;;;;;16.02;5.80;;;;;;;;;;5096790;28;20012;-58
2023/02/07 03:23:04;;;;;;;12.38;3.35;;;;;;;;;;5096249;28;20016;-60
2023/02/07 03:25:30;;;;;;;17.27;6.03;;;;;;;;;;5096718;28;20480;-58
2023/02/07 03:27:56;;;;;;;17.73;5.35;;;;;;;;;;5095243;28;20016;-57
2023/02/07 03:30:22;;;;;;;12.43;4.47;;;;;;;;;;5096492;28;20522;-58
2023/02/07 03:32:50;;;;;;;16.13;5.63;;;;;;;;;;5096425;28;20085;-60
2023/02/07 03:35:27;;;;;;;21.83;7.25;;;;;;;;;;5094930;28;20139;-59
2023/02/07 03:37:55;;;;;;;26.08;6.47;;;;;;;;;;5096457;28;20024;-58
2023/02/07 03:40:22;;;;;;;22.58;5.32;;;;;;;;;;5095190;28;20028;-57
2023/02/07 03:42:50;;;;;;;14.38;5.43;;;;;;;;;;5096141;28;20147;-58
2023/02/07 03:45:17;;;;;;;14.02;4.57;;;;;;;;;;5094593;28;20038;-57
2023/02/07 03:47:43;;;;;;;20.42;5.93;;;;;;;;;;5096044;28;20040;-59
2023/02/07 03:50:11;;;;;;;17.88;5.25;;;;;;;;;;5094930;28;20052;-59
2023/02/07 03:52:37;;;;;;;32.20;6.00;;;;;;;;;;5095570;28;20016;-58
2023/02/07 03:55:03;;;;;;;13.82;4.72;;;;;;;;;;5097288;28;20020;-58
2023/02/07 03:57:28;;;;;;;18.58;6.68;;;;;;;;;;5095898;28;20020;-59
2023/02/07 03:59:54;;;;;;;14.65;5.50;;;;;;;;;;5094751;28;20014;-58
2023/02/07 04:02:19;;;;;;;14.13;3.92;;;;;;;;;;5096458;28;20099;-58
2023/02/07 04:04:45;;;;;;;17.50;5.43;;;;;;;;;;5096066;28;20020;-58
2023/02/07 04:07:10;;;;;;;12.98;5.32;;;;;;;;;;5096757;28;20051;-59
2023/02/07 04:09:36;;;;;;;13.68;4.32;;;;;;;;;;5095376;28;20023;-61
2023/02/07 04:12:01;;;;;;;15.63;4.70;;;;;;;;;;5096546;28;20023;-65
2023/02/07 04:14:27;;;;;;;10.43;3.15;;;;;;;;;;5097487;28;20365;-62
2023/02/07 04:16:52;;;;;;;19.23;4.85;;;;;;;;;;5094880;28;20023;-58
2023/02/07 04:19:18;;;;;;;19.83;5.65;;;;;;;;;;5094007;28;20153;-58
2023/02/07 04:21:43;;;;;;;22.83;6.95;;;;;;;;;;5095343;28;20379;-59
2023/02/07 04:24:09;;;;;;;18.60;5.53;;;;;;;;;;5094263;28;20028;-58
2023/02/07 04:26:34;;;;;;;16.25;4.47;;;;;;;;;;5093078;28;20032;-58
2023/02/07 04:28:59;;;;;;;17.63;4.35;;;;;;;;;;5095127;28;20099;-59
2023/02/07 04:31:25;;;;;;;8.48;3.03;;;;;;;;;;5094106;28;20050;-58
2023/02/07 04:33:50;;;;;;;13.20;5.88;;;;;;;;;;5093808;28;20476;-58
2023/02/07 04:36:16;;;;;;;16.58;4.35;;;;;;;;;;5094457;28;20050;-58
2023/02/07 04:38:41;;;;;;;14.02;3.83;;;;;;;;;;5095235;28;20038;-59
2023/02/07 04:41:07;;;;;;;14.95;4.13;;;;;;;;;;5093726;28;20019;-69
2023/02/07 04:43:33;;;;;;;9.95;3.22;;;;;;;;;;5095077;28;20480;-58
2023/02/07 04:45:59;;;;;;;19.63;3.95;;;;;;;;;;5094904;28;20035;-59
2023/02/07 04:48:24;;;;;;;16.63;3.67;;;;;;;;;;5093630;28;20389;-58
2023/02/07 04:50:50;;;;;;;14.18;3.63;;;;;;;;;;5093932;28;20481;-58
2023/02/07 04:53:15;;;;;;;23.50;5.82;;;;;;;;;;5096568;28;20496;-59
2023/02/07 04:55:41;;;;;;;24.70;4.68;;;;;;;;;;5095528;28;20034;-62
2023/02/07 04:58:06;;;;;;;19.80;4.95;;;;;;;;;;5097541;28;20038;-65
2023/02/07 05:00:32;;;;;;;7.57;2.40;;;;;;;;;;5096587;28;20020;-64
2023/02/07 05:02:58;;;;;;;19.63;4.10;;;;;;;;;;5095949;28;20024;-59
2023/02/07 05:05:23;;;;;;;27.45;6.55;;;;;;;;;;5097200;28;20028;-60
2023/02/07 05:07:49;;;;;;;12.95;4.88;;;;;;;;;;5097547;28;20040;-59
2023/02/07 05:10:14;;;;;;;15.20;4.25;;;;;;;;;;5096674;28;20085;-60
2023/02/07 05:12:40;;;;;;;18.00;4.68;;;;;;;;;;5094908;28;20503;-60
2023/02/07 05:15:05;;;;;;;12.20;4.28;;;;;;;;;;5094689;28;20518;-58
2023/02/07 05:17:33;;;;;;;18.05;5.18;;;;;;;;;;5094816;28;20020;-60
2023/02/07 05:20:02;;;;;;;7.75;3.38;;;;;;;;;;5094662;28;20015;-59
2023/02/07 05:22:29;;;;;;;7.68;1.30;;;;;;;;;;5093940;28;20385;-57
2023/02/07 05:24:54;;;;;;;27.27;3.88;;;;;;;;;;5094890;28;20069;-58
2023/02/07 05:27:20;;;;;;;14.30;2.88;;;;;;;;;;5094241;28;20443;-58
2023/02/07 05:29:46;;;;;;;14.43;3.38;;;;;;;;;;5092571;28;20476;-63
2023/02/07 05:35:05;;;;;;;17.08;3.58;;;;;;;;;;5085034;28;20028;-60
2023/02/07 05:37:30;;;;;;;17.65;4.07;;;;;;;;;;5092869;28;20024;-58
2023/02/07 05:39:57;;;;;;;15.07;2.42;;;;;;;;;;5094090;28;20507;-61
2023/02/07 05:42:22;;;;;;;14.95;2.97;;;;;;;;;;5092367;28;20023;-58
2023/02/07 05:44:47;;;;;;;16.17;3.30;;;;;;;;;;5092799;28;20020;-60
2023/02/07 05:47:13;;;;;;;19.30;5.18;;;;;;;;;;5094126;28;20035;-59
2023/02/07 05:49:39;;;;;;;11.20;3.35;;;;;;;;;;5092522;28;20473;-59
2023/02/07 05:52:04;;;;;;;11.85;3.47;;;;;;;;;;5093645;28;20028;-58
2023/02/07 05:54:30;;;;;;;17.15;3.40;;;;;;;;;;5093651;28;20020;-65
2023/02/07 05:56:55;;;;;;;16.15;3.20;;;;;;;;;;5091950;28;20481;-59
2023/02/07 05:59:21;;;;;;;15.10;3.83;;;;;;;;;;5092724;28;20020;-60
2023/02/07 06:01:46;;;;;;;16.33;3.15;;;;;;;;;;5093392;28;20473;-60
2023/02/07 06:04:12;;;;;;;18.63;3.97;;;;;;;;;;5093247;28;20038;-60
2023/02/07 06:06:37;;;;;;;11.15;2.83;;;;;;;;;;5091380;28;20059;-58
2023/02/07 06:09:03;;;;;;;10.23;3.33;;;;;;;;;;5091599;28;20115;-59
2023/02/07 06:11:29;;;;;;;9.85;2.28;;;;;;;;;;5093739;28;20536;-63
2023/02/07 06:13:54;;;;;;;14.88;3.55;;;;;;;;;;5092547;28;20103;-59
2023/02/07 06:16:20;;;;;;;8.48;3.28;;;;;;;;;;5093714;28;20027;-59
2023/02/07 06:18:46;;;;;;;10.35;2.72;;;;;;;;;;5094284;28;20026;-58
2023/02/07 06:21:12;;;;;;;14.98;2.60;;;;;;;;;;5092643;28;20019;-59
2023/02/07 06:23:37;;;;;;;12.07;4.32;;;;;;;;;;5092898;28;20024;-59
2023/02/07 06:26:03;;;;;;;9.05;2.42;;;;;;;;;;5091152;28;20046;-59
2023/02/07 06:28:28;;;;;;;12.63;3.70;;;;;;;;;;5092801;28;20102;-59
2023/02/07 06:30:53;;;;;;;23.17;4.18;;;;;;;;;;5091710;28;20023;-60
2023/02/07 06:33:19;;;;;;;12.45;4.05;;;;;;;;;;5091178;28;20035;-59
2023/02/07 06:35:47;;;;;;;9.50;3.15;;;;;;;;;;5092429;28;20460;-59
2023/02/07 06:38:13;;;;;;;9.45;2.97;;;;;;;;;;5092506;28;20016;-62
2023/02/07 06:40:40;;;;;;;13.30;3.00;;;;;;;;;;5091475;28;20027;-60
2023/02/07 06:43:06;;;;;;;10.43;2.45;;;;;;;;;;5091979;28;20020;-60
2023/02/07 06:45:32;;;;;;;22.90;3.00;;;;;;;;;;5091644;28;20028;-60
2023/02/07 06:47:57;;;;;;;13.82;3.05;;;;;;;;;;5092746;28;20016;-60
2023/02/07 06:50:22;;;;;;;13.52;2.45;;;;;;;;;;5092291;28;20066;-59
2023/02/07 06:52:49;;;;;;;15.85;2.78;;;;;;;;;;5096868;28;20016;-58
2023/02/07 06:55:14;;;;;;;13.18;2.83;;;;;;;;;;5095521;28;20012;-59
2023/02/07 06:57:40;;;;;;;9.98;3.45;;;;;;;;;;5095327;28;20361;-59
2023/02/07 07:00:06;;;;;;;10.15;1.75;;;;;;;;;;5096672;28;20019;-60
2023/02/07 07:02:31;;;;;;;15.40;2.97;;;;;;;;;;5096645;28;20524;-61
2023/02/07 07:04:57;;;;;;;9.93;3.15;;;;;;;;;;5095280;28;20031;-60
2023/02/07 07:07:22;;;;;;;12.40;2.50;;;;;;;;;;5097659;28;20096;-59
2023/02/07 07:09:47;;;;;;;14.80;2.97;;;;;;;;;;5097398;28;20469;-60
2023/02/07 07:12:13;;;;;;;10.55;2.78;;;;;;;;;;5095536;28;20115;-65
2023/02/07 07:14:38;;;;;;;18.15;3.17;;;;;;;;;;5096911;28;20521;-60
2023/02/07 07:17:04;;;;;;;13.00;2.90;;;;;;;;;;5096515;28;20020;-63
2023/02/07 07:19:29;;;;;;;17.50;4.15;;;;;;;;;;5096501;28;20016;-62
2023/02/07 07:21:55;;;;;;;19.20;4.00;;;;;;;;;;5098168;28;20431;-61
2023/02/07 07:24:20;;;;;;;13.23;3.00;;;;;;;;;;5094698;28;20034;-61
2023/02/07 07:26:46;;;;;;;14.25;3.42;;;;;;;;;;5095548;28;20023;-60
2023/02/07 07:29:12;;;;;;;16.05;3.67;;;;;;;;;;5094543;28;20447;-62
2023/02/07 07:31:37;;;;;;;12.02;2.60;;;;;;;;;;5094473;28;20465;-58
2023/02/07 07:34:03;;;;;;;15.13;3.45;;;;;;;;;;5095501;28;20099;-60
2023/02/07 07:36:28;;;;;;;8.55;3.47;;;;;;;;;;5094060;28;20495;-60
2023/02/07 07:38:54;;;;;;;8.93;2.55;;;;;;;;;;5095238;28;20099;-60
2023/02/07 07:41:19;;;;;;;7.15;2.17;;;;;;;;;;5093721;28;20024;-60
2023/02/07 07:43:45;;;;;;;12.65;3.45;;;;;;;;;;5095002;28;20074;-60
2023/02/07 07:46:10;;;;;;;20.23;4.75;;;;;;;;;;5095297;28;20077;-60
2023/02/07 07:48:35;;;;;;;14.98;3.13;;;;;;;;;;5094392;28;20161;-59
2023/02/07 07:51:01;;;;;;;14.27;3.53;;;;;;;;;;5094941;28;20103;-60
2023/02/07 07:53:27;;;;;;;10.38;2.35;;;;;;;;;;5094767;28;20035;-60
2023/02/07 07:55:53;;;;;;;14.40;2.95;;;;;;;;;;5095508;28;20507;-60
2023/02/07 07:58:20;;;;;;;19.95;3.72;;;;;;;;;;5094385;28;20023;-60
2023/02/07 08:00:46;;;;;;;14.07;3.72;;;;;;;;;;5094959;28;20090;-59
2023/02/07 08:03:12;;;;;;;23.10;3.78;;;;;;;;;;5094362;28;20381;-61
2023/02/07 08:05:38;;;;;;;17.48;3.58;;;;;;;;;;5093688;28;20032;-60
2023/02/07 08:08:03;;;;;;;22.65;4.55;;;;;;;;;;5093122;28;20055;-60
2023/02/07 08:10:29;;;;;;;14.38;3.97;;;;;;;;;;5094897;28;20018;-61
2023/02/07 08:12:54;;;;;;;13.55;4.60;;;;;;;;;;5094005;28;20050;-64
2023/02/07 08:15:19;;;;;;;21.85;4.72;;;;;;;;;;5094747;28;20027;-60
2023/02/07 08:17:45;;;;;;;14.63;3.22;;;;;;;;;;5095249;28;20046;-60
2023/02/07 08:20:11;;;;;;;14.93;4.43;;;;;;;;;;5093652;28;20461;-61
2023/02/07 08:22:37;;;;;;;9.93;4.15;;;;;;;;;;5093477;28;20016;-61
2023/02/07 08:25:03;;;;;;;12.25;3.90;;;;;;;;;;5094348;28;20400;-59
2023/02/07 08:27:29;;;;;;;18.52;4.30;;;;;;;;;;5094678;28;20477;-59
2023/02/07 08:29:54;;;;;;;11.30;4.45;;;;;;;;;;5093704;28;20066;-60
2023/02/07 08:32:20;;;;;;;10.63;3.50;;;;;;;;;;5093081;28;20019;-60
2023/02/07 08:34:45;;;;;;;17.77;4.28;;;;;;;;;;5093452;28;20020;-60
2023/02/07 08:37:11;;;;;;;20.10;4.65;;;;;;;;;;5094539;28;20103;-59
2023/02/07 08:39:37;;;;;;;26.15;4.10;;;;;;;;;;5094723;28;20490;-59
2023/02/07 08:42:04;;;;;;;10.32;2.80;;;;;;;;;;5093829;28;20024;-61
2023/02/07 08:44:31;;;;;;;15.15;2.83;;;;;;;;;;5095751;28;20047;-62
2023/02/07 08:46:56;;;;;;;14.23;3.17;;;;;;;;;;5093742;28;20039;-58
2023/02/07 08:49:21;;;;;;;19.80;5.03;;;;;;;;;;5093500;28;20016;-60
2023/02/07 08:51:47;;;;;;;12.95;3.05;;;;;;;;;;5094837;28;20048;-61
2023/02/07 08:54:13;;;;;;;12.93;3.65;;;;;;;;;;5093563;28;20093;-60
2023/02/07 08:56:38;;;;;;;15.93;4.00;;;;;;;;;;5093552;28;20372;-60
2023/02/07 08:59:04;;;;;;;20.13;4.45;;;;;;;;;;5094486;28;20109;-60
2023/02/07 09:01:29;;;;;;;14.02;4.20;;;;;;;;;;5093314;28;20529;-59
2023/02/07 09:03:55;;;;;;;15.02;4.40;;;;;;;;;;5094034;28;20528;-61
2023/02/07 09:06:24;;;;;;;15.60;3.20;;;;;;;;;;5093293;28;20354;-58
2023/02/07 09:08:50;;;;;;;16.90;5.05;;;;;;;;;;5094068;28;20116;-60
2023/02/07 09:11:15;;;;;;;12.18;5.07;;;;;;;;;;5094563;28;20097;-62
2023/02/07 09:13:44;;;;;;;8.35;3.28;;;;;;;;;;5092213;28;20081;-60
2023/02/07 09:16:11;;;;;;;12.43;3.63;;;;;;;;;;5092943;28;20016;-60
2023/02/07 09:18:36;;;;;;;11.90;3.22;;;;;;;;;;5092904;28;20418;-59
2023/02/07 09:21:03;;;;;;;13.13;3.50;;;;;;;;;;5093691;28;20088;-60
2023/02/07 09:23:30;;;;;;;13.35;4.70;;;;;;;;;;5092802;28;20023;-59
2023/02/07 09:25:59;;;;;;;17.75;4.40;;;;;;;;;;5094019;28;20392;-58
2023/02/07 09:28:24;;;;;;;8.80;3.22;;;;;;;;;;5094389;28;20085;-60
2023/02/07 09:30:50;;;;;;;7.38;2.97;;;;;;;;;;5093828;28;20016;-60
2023/02/07 09:33:15;;;;;;;6.82;2.45;;;;;;;;;;5095681;28;20108;-66
2023/02/07 09:35:45;;;;;;;13.25;3.92;;;;;;;;;;5095144;28;20020;-63
2023/02/07 09:38:15;;;;;;;18.40;5.35;;;;;;;;;;5094148;28;20016;-59
2023/02/07 09:40:41;;;;;;;12.18;3.67;;;;;;;;;;5092782;28;20028;-61
2023/02/07 09:43:10;;;;;;;8.70;2.35;;;;;;;;;;5092064;28;20016;-60
2023/02/07 09:45:38;;;;;;;16.17;5.35;;;;;;;;;;5092015;28;20031;-59
2023/02/07 09:48:13;;;;;;;14.02;3.88;;;;;;;;;;5092200;28;20012;-61
2023/02/07 09:50:42;;;;;;;5.25;2.70;;;;;;;;;;5093301;28;20024;-59
2023/02/07 09:53:13;;;;;;;14.15;4.30;;;;;;;;;;5093750;28;20026;-60
2023/02/07 09:55:56;;;;;;;17.13;4.25;;;;;;;;;;5093128;28;20048;-60
2023/02/07 09:58:37;;;;;;;13.73;4.35;;;;;;;;;;5094680;28;20023;-60
2023/02/07 10:01:14;;;;;;;5.35;2.92;;;;;;;;;;5093873;28;20019;-60
2023/02/07 10:04:03;;;;;;;14.20;2.50;;;;;;;;;;5093788;28;20051;-61
2023/02/07 10:06:29;;;;;;;8.30;3.67;;;;;;;;;;5054138;28;20040;-61
2023/02/07 10:08:55;;;;;;;9.70;3.40;;;;;;;;;;5091397;28;20055;-61
2023/02/07 10:11:40;;;;;;;10.77;3.75;;;;;;;;;;5091778;28;20028;-61
2023/02/07 10:14:16;;;;;;;5.90;2.40;;;;;;;;;;5093315;28;20027;-62
2023/02/07 10:17:01;;;;;;;5.40;2.90;;;;;;;;;;5093023;28;20111;-61
2023/02/07 10:19:34;;;;;;;7.68;2.33;;;;;;;;;;5091580;28;20544;-61
2023/02/07 10:22:14;;;;;;;8.70;3.20;;;;;;;;;;5093018;28;20476;-66
2023/02/07 10:25:04;;;;;;;14.70;3.58;;;;;;;;;;5092282;28;20156;-59
2023/02/07 10:27:30;;;;;;;9.15;3.10;;;;;;;;;;5093462;28;20036;-60
2023/02/07 10:30:08;;;;;;;6.45;2.67;;;;;;;;;;5093442;28;20495;-60
2023/02/07 10:32:35;;;;;;;5.55;2.40;;;;;;;;;;5092711;28;20146;-62
2023/02/07 10:35:04;;;;;;;12.07;2.78;;;;;;;;;;5092157;28;20020;-61
2023/02/07 10:37:34;;;;;;;8.68;3.15;;;;;;;;;;5092496;28;20128;-64
2023/02/07 10:40:32;;;;;;;17.95;3.45;;;;;;;;;;5092670;28;20111;-62
2023/02/07 10:43:03;;;;;;;13.00;5.30;;;;;;;;;;5047385;28;20027;-61
2023/02/07 10:45:28;;;;;;;9.55;2.38;;;;;;;;;;5091654;28;20032;-60
2023/02/07 10:47:54;;;;;;;10.60;3.83;;;;;;;;;;5091048;28;20016;-60
2023/02/07 10:50:21;;;;;;;8.52;2.15;;;;;;;;;;5092100;28;20016;-67
2023/02/07 10:52:51;;;;;;;11.13;3.30;;;;;;;;;;5092260;28;20127;-62
2023/02/07 10:55:18;;;;;;;9.82;3.40;;;;;;;;;;5092235;28;20024;-60
2023/02/07 10:57:51;;;;;;;6.45;3.30;;;;;;;;;;5090950;28;20379;-63
2023/02/07 11:00:24;;;;;;;11.55;4.72;;;;;;;;;;5092453;28;20095;-61
2023/02/07 11:02:51;;;;;;;7.70;2.88;;;;;;;;;;5090829;28;20024;-59
2023/02/07 11:05:17;;;;;;;12.52;3.30;;;;;;;;;;5092024;28;20032;-60
2023/02/07 11:07:59;;;;;;;13.40;3.65;;;;;;;;;;5090754;28;20048;-61
2023/02/07 11:10:32;;;;;;;11.40;3.03;;;;;;;;;;5091868;28;20023;-60
2023/02/07 11:12:58;;;;;;;14.13;5.53;;;;;;;;;;5091482;28;20051;-60
2023/02/07 11:15:30;;;;;;;6.93;2.70;;;;;;;;;;5090811;28;20020;-61
2023/02/07 11:17:56;;;;;;;3.70;2.00;;;;;;;;;;5091906;28;20016;-61
2023/02/07 11:20:21;;;;;;;12.70;4.20;;;;;;;;;;5091722;28;20354;-60
2023/02/07 11:22:50;;;;;;;9.15;3.17;;;;;;;;;;5092484;28;20365;-60
2023/02/07 11:25:15;;;;;;;7.13;2.53;;;;;;;;;;5091624;28;20059;-60
2023/02/07 11:27:41;;;;;;;9.18;3.47;;;;;;;;;;5091801;28;20385;-60
2023/02/07 11:30:18;;;;;;;8.52;3.20;;;;;;;;;;5090448;28;20023;-61
2023/02/07 11:32:43;;;;;;;8.52;3.78;;;;;;;;;;5092016;28;20047;-60
2023/02/07 11:35:17;;;;;;;9.63;4.75;;;;;;;;;;5091476;28;20093;-61
2023/02/07 11:37:47;;;;;;;11.57;3.78;;;;;;;;;;5094961;28;20051;-60
2023/02/07 11:40:28;;;;;;;15.30;4.95;;;;;;;;;;5096098;28;20039;-62
2023/02/07 11:42:59;;;;;;;11.00;4.95;;;;;;;;;;5094531;28;20111;-61
2023/02/07 11:45:25;;;;;;;8.90;3.55;;;;;;;;;;5094762;28;20027;-62
2023/02/07 11:47:54;;;;;;;18.52;5.03;;;;;;;;;;5094527;28;20480;-61
2023/02/07 11:50:22;;;;;;;15.18;6.45;;;;;;;;;;5096377;28;20020;-62
2023/02/07 11:52:52;;;;;;;12.65;5.22;;;;;;;;;;5094317;28;20028;-61
2023/02/07 11:55:21;;;;;;;12.68;4.10;;;;;;;;;;5095467;28;20112;-59
2023/02/07 11:57:47;;;;;;;13.48;4.97;;;;;;;;;;5094423;28;20555;-61
2023/02/07 12:00:19;;;;;;;10.98;4.00;;;;;;;;;;5094959;28;20099;-60
2023/02/07 12:02:48;;;;;;;10.75;3.13;;;;;;;;;;5093843;28;20023;-61
2023/02/07 12:05:21;;;;;;;14.93;5.30;;;;;;;;;;5093685;28;20032;-60
2023/02/07 12:07:52;;;;;;;12.63;5.15;;;;;;;;;;5093811;28;20173;-61
2023/02/07 12:10:22;;;;;;;15.45;5.00;;;;;;;;;;5094399;28;20020;-61
2023/02/07 12:12:50;;;;;;;15.80;5.55;;;;;;;;;;5094572;28;20017;-63
2023/02/07 12:15:21;;;;;;;17.83;5.07;;;;;;;;;;5095751;28;20085;-65
2023/02/07 12:17:53;;;;;;;14.85;5.72;;;;;;;;;;5095484;28;20020;-61
2023/02/07 12:20:22;;;;;;;21.25;8.18;;;;;;;;;;5095576;28;20036;-61
2023/02/07 12:23:11;;;;;;;13.18;5.45;;;;;;;;;;5093974;28;20038;-62
2023/02/07 12:25:40;;;;;;;20.95;6.57;;;;;;;;;;5065722;28;20039;-60
2023/02/07 12:28:14;;;;;;;14.98;6.25;;;;;;;;;;5093525;28;20024;-61
2023/02/07 12:30:42;;;;;;;25.05;5.85;;;;;;;;;;5093929;28;20155;-59
2023/02/07 12:33:14;;;;;;;13.70;5.30;;;;;;;;;;5093689;28;20016;-61
2023/02/07 12:35:51;;;;;;;14.18;5.30;;;;;;;;;;5094151;28;20484;-59
2023/02/07 12:38:22;;;;;;;12.57;4.40;;;;;;;;;;5093645;28;20069;-61
2023/02/07 12:40:59;;;;;;;10.68;4.05;;;;;;;;;;5095027;28;20380;-62
2023/02/07 12:43:29;;;;;;;14.52;5.05;;;;;;;;;;5094861;28;20032;-61
2023/02/07 12:46:01;;;;;;;15.27;5.40;;;;;;;;;;5093568;28;20405;-61
2023/02/07 12:48:27;;;;;;;14.15;4.72;;;;;;;;;;5092516;28;20031;-61
2023/02/07 12:50:53;;;;;;;18.58;6.05;;;;;;;;;;5094637;28;20016;-59
2023/02/07 12:53:18;;;;;;;11.73;3.75;;;;;;;;;;5092891;28;20392;-61
2023/02/07 12:55:53;;;;;;;14.10;6.85;;;;;;;;;;5092731;28;20020;-60
2023/02/07 12:58:18;;;;;;;16.15;6.40;;;;;;;;;;5093135;28;20027;-60
2023/02/07 13:00:59;;;;;;;16.33;6.50;;;;;;;;;;5094432;28;20024;-60
2023/02/07 13:03:27;;;;;;;19.67;6.43;;;;;;;;;;5092988;28;20065;-61
2023/02/07 13:06:12;;;;;;;23.80;8.93;;;;;;;;;;5093765;28;20055;-59
2023/02/07 13:08:50;;;;;;;18.70;7.90;;;;;;;;;;5092900;28;20048;-60
2023/02/07 13:11:30;;;;;;;18.48;7.00;;;;;;;;;;5093955;28;20035;-61
2023/02/07 13:13:59;;;;;;;23.38;9.27;;;;;;;;;;5092285;28;20032;-63
2023/02/07 13:16:42;;;;;;;18.05;7.65;;;;;;;;;;5092660;28;20016;-61
2023/02/07 13:19:16;;;;;;;21.20;8.57;;;;;;;;;;5094274;28;20032;-60
2023/02/07 13:21:58;;;;;;;16.08;7.80;;;;;;;;;;5092774;28;20032;-60
2023/02/07 13:24:25;;;;;;;19.42;7.95;;;;;;;;;;5094684;28;20377;-63
2023/02/07 13:26:56;;;;;;;24.65;7.15;;;;;;;;;;5093881;28;20043;-63
2023/02/07 13:29:22;;;;;;;18.70;7.50;;;;;;;;;;5093595;28;20384;-61
2023/02/07 13:31:56;;;;;;;27.92;9.52;;;;;;;;;;5093242;28;20031;-63
2023/02/07 13:34:50;;;;;;;18.55;7.47;;;;;;;;;;5094183;28;20376;-59
2023/02/07 13:37:16;;;;;;;10.50;5.47;;;;;;;;;;5080245;28;20046;-61
2023/02/07 13:39:45;;;;;;;14.32;5.65;;;;;;;;;;5092403;28;20028;-59
2023/02/07 13:42:26;;;;;;;14.30;6.00;;;;;;;;;;5092974;28;20027;-62
2023/02/07 13:44:52;;;;;;;22.55;8.02;;;;;;;;;;5093682;28;20026;-59
2023/02/07 13:47:20;;;;;;;13.32;4.97;;;;;;;;;;5092313;28;20039;-63
2023/02/07 13:50:04;;;;;;;16.02;6.22;;;;;;;;;;5092174;28;20024;-60
2023/02/07 13:52:34;;;;;;;23.00;6.88;;;;;;;;;;5093525;28;20042;-60
2023/02/07 13:54:59;;;;;;;12.15;5.05;;;;;;;;;;5094169;28;20019;-60
2023/02/07 14:00:32;;;;;;;20.67;6.85;;;;;;;;;;5092777;28;20391;-59
2023/02/07 14:03:02;;;;;;;19.55;6.88;;;;;;;;;;5091618;28;20522;-61
2023/02/07 14:05:30;;;;;;;17.65;7.00;;;;;;;;;;5091015;28;20430;-59
2023/02/07 14:08:00;;;;;;;20.38;4.97;;;;;;;;;;5090843;28;20493;-61
2023/02/07 14:10:44;;;;;;;19.55;6.90;;;;;;;;;;5092701;28;20016;-64
2023/02/07 14:13:25;;;;;;;19.30;6.18;;;;;;;;;;5093505;28;20024;-60
2023/02/07 14:15:51;;;;;;;15.30;5.88;;;;;;;;;;5091452;28;20027;-60
2023/02/07 14:18:28;;;;;;;14.20;4.80;;;;;;;;;;5091767;28;20476;-62
2023/02/07 14:21:02;;;;;;;21.55;7.68;;;;;;;;;;5093051;28;20020;-60
2023/02/07 14:23:47;;;;;;;14.82;5.05;;;;;;;;;;5092452;28;20056;-64
2023/02/07 14:26:31;;;;;;;15.48;5.97;;;;;;;;;;5091421;28;20136;-61
2023/02/07 14:29:15;;;;;;;11.50;3.42;;;;;;;;;;5092150;28;20055;-61
2023/02/07 14:31:46;;;;;;;17.67;6.22;;;;;;;;;;5091780;28;20028;-61
2023/02/07 14:34:13;;;;;;;16.73;5.43;;;;;;;;;;5094269;28;20473;-61
2023/02/07 14:36:39;;;;;;;22.70;6.97;;;;;;;;;;5093476;28;20020;-63
2023/02/07 14:39:05;;;;;;;20.85;6.68;;;;;;;;;;5092982;28;20016;-60
2023/02/07 14:41:32;;;;;;;17.98;6.32;;;;;;;;;;5091976;28;20760;-60
2023/02/07 14:43:59;;;;;;;17.17;6.78;;;;;;;;;;5091824;28;20065;-62
2023/02/07 14:46:34;;;;;;;22.95;6.35;;;;;;;;;;5092693;28;20038;-60
2023/02/07 14:49:18;;;;;;;19.67;6.45;;;;;;;;;;5094148;28;20022;-62